sensor_id;sensor_type;location;lat;lon;timestamp;P1;durP1;ratioP1;P2;durP2;ratioP2
13057;SDS011;6595;49.578;11.012;2023-08-21T00:00:24;15.2;;;9.8;;
13057;SDS011;6595;49.578;11.012;2023-08-21T00:02:23;13.3;;;10.2;;
13057;SDS011;6595;49.578;11.012;2023-08-21T00:04:23;13.3;;;10.2;;
13057;SDS011;6595;49.578;11.012;2023-08-21T00:06:23;14.0;;;10.1;;
13057;SDS011;6595;49.578;11.012;2023-08-21T00:08:24;16.1;;;10.5;;
13057;SDS011;6595;49.578;11.012;2023-08-21T00:10:24;14.9;;;10.5;;
13057;SDS011;6595;49.578;11.012;2023-08-21T00:12:23;14.9;;;10.5;;
13057;SDS011;6595;49.578;11.012;2023-08-21T00:14:23;16.0;;;10.9;;
13057;SDS011;6595;49.578;11.012;2023-08-21T00:16:23;14.6;;;10.8;;
13057;SDS011;6595;49.578;11.012;2023-08-21T00:18:23;15.3;;;11.0;;
13057;SDS011;6595;49.578;11.012;2023-08-21T00:20:24;15.3;;;11.0;;
13057;SDS011;6595;49.578;11.012;2023-08-21T00:22:24;13.5;;;11.1;;
13057;SDS011;6595;49.578;11.012;2023-08-21T00:24:23;13.2;;;10.1;;
13057;SDS011;6595;49.578;11.012;2023-08-21T00:26:23;14.1;;;10.6;;
13057;SDS011;6595;49.578;11.012;2023-08-21T00:28:23;15.7;;;10.7;;
13057;SDS011;6595;49.578;11.012;2023-08-21T00:30:24;16.9;;;11.0;;
13057;SDS011;6595;49.578;11.012;2023-08-21T00:32:23;16.9;;;11.0;;
13057;SDS011;6595;49.578;11.012;2023-08-21T00:34:23;15.8;;;11.0;;
13057;SDS011;6595;49.578;11.012;2023-08-21T00:36:24;15.4;;;11.8;;
13057;SDS011;6595;49.578;11.012;2023-08-21T00:38:23;14.5;;;10.8;;
13057;SDS011;6595;49.578;11.012;2023-08-21T00:40:23;17.1;;;11.3;;
13057;SDS011;6595;49.578;11.012;2023-08-21T00:42:23;17.1;;;11.3;;
13057;SDS011;6595;49.578;11.012;2023-08-21T00:44:23;15.7;;;11.1;;
13057;SDS011;6595;49.578;11.012;2023-08-21T00:46:24;14.3;;;11.5;;
13057;SDS011;6595;49.578;11.012;2023-08-21T00:48:24;15.2;;;11.3;;
13057;SDS011;6595;49.578;11.012;2023-08-21T00:50:23;17.3;;;12.0;;
13057;SDS011;6595;49.578;11.012;2023-08-21T00:52:23;17.3;;;12.0;;
13057;SDS011;6595;49.578;11.012;2023-08-21T00:54:23;17.1;;;11.7;;
13057;SDS011;6595;49.578;11.012;2023-08-21T00:56:23;15.3;;;11.7;;
13057;SDS011;6595;49.578;11.012;2023-08-21T00:58:23;15.5;;;11.8;;
13057;SDS011;6595;49.578;11.012;2023-08-21T01:00:24;16.2;;;11.2;;
13057;SDS011;6595;49.578;11.012;2023-08-21T01:02:23;16.2;;;11.2;;
13057;SDS011;6595;49.578;11.012;2023-08-21T01:04:23;15.3;;;11.2;;
13057;SDS011;6595;49.578;11.012;2023-08-21T01:06:23;13.6;;;11.0;;
13057;SDS011;6595;49.578;11.012;2023-08-21T01:08:25;16.6;;;12.2;;
13057;SDS011;6595;49.578;11.012;2023-08-21T01:10:27;13.9;;;11.3;;
13057;SDS011;6595;49.578;11.012;2023-08-21T01:12:23;13.9;;;11.3;;
13057;SDS011;6595;49.578;11.012;2023-08-21T01:14:25;13.7;;;11.2;;
13057;SDS011;6595;49.578;11.012;2023-08-21T01:16:23;15.3;;;11.7;;
13057;SDS011;6595;49.578;11.012;2023-08-21T01:18:23;14.5;;;10.9;;
13057;SDS011;6595;49.578;11.012;2023-08-21T01:20:23;14.5;;;10.9;;
13057;SDS011;6595;49.578;11.012;2023-08-21T01:22:25;15.0;;;11.5;;
13057;SDS011;6595;49.578;11.012;2023-08-21T01:24:23;14.8;;;11.2;;
13057;SDS011;6595;49.578;11.012;2023-08-21T01:26:23;14.8;;;11.2;;
13057;SDS011;6595;49.578;11.012;2023-08-21T01:28:24;15.4;;;12.2;;
13057;SDS011;6595;49.578;11.012;2023-08-21T01:30:24;15.4;;;12.2;;
13057;SDS011;6595;49.578;11.012;2023-08-21T01:32:33;16.5;;;12.2;;
13057;SDS011;6595;49.578;11.012;2023-08-21T01:34:23;16.9;;;12.7;;
13057;SDS011;6595;49.578;11.012;2023-08-21T01:36:23;16.9;;;12.7;;
13057;SDS011;6595;49.578;11.012;2023-08-21T01:38:23;16.9;;;12.7;;
13057;SDS011;6595;49.578;11.012;2023-08-21T01:40:23;14.7;;;11.8;;
13057;SDS011;6595;49.578;11.012;2023-08-21T01:42:23;16.1;;;11.8;;
13057;SDS011;6595;49.578;11.012;2023-08-21T01:44:24;15.8;;;12.2;;
13057;SDS011;6595;49.578;11.012;2023-08-21T01:46:23;15.8;;;12.7;;
13057;SDS011;6595;49.578;11.012;2023-08-21T01:48:23;15.8;;;12.7;;
13057;SDS011;6595;49.578;11.012;2023-08-21T01:50:23;15.2;;;12.0;;
13057;SDS011;6595;49.578;11.012;2023-08-21T01:52:23;16.9;;;12.8;;
13057;SDS011;6595;49.578;11.012;2023-08-21T01:54:24;14.9;;;12.4;;
13057;SDS011;6595;49.578;11.012;2023-08-21T01:56:24;16.3;;;12.7;;
13057;SDS011;6595;49.578;11.012;2023-08-21T01:58:23;14.8;;;12.2;;
13057;SDS011;6595;49.578;11.012;2023-08-21T02:00:23;14.8;;;12.2;;
13057;SDS011;6595;49.578;11.012;2023-08-21T02:02:23;14.9;;;12.9;;
13057;SDS011;6595;49.578;11.012;2023-08-21T02:04:24;17.2;;;12.8;;
13057;SDS011;6595;49.578;11.012;2023-08-21T02:06:23;17.2;;;12.8;;
13057;SDS011;6595;49.578;11.012;2023-08-21T02:08:25;15.9;;;12.7;;
13057;SDS011;6595;49.578;11.012;2023-08-21T02:10:23;15.9;;;12.7;;
13057;SDS011;6595;49.578;11.012;2023-08-21T02:12:23;16.4;;;12.9;;
13057;SDS011;6595;49.578;11.012;2023-08-21T02:14:23;17.2;;;13.2;;
13057;SDS011;6595;49.578;11.012;2023-08-21T02:16:24;17.2;;;13.7;;
13057;SDS011;6595;49.578;11.012;2023-08-21T02:18:24;17.2;;;13.7;;
13057;SDS011;6595;49.578;11.012;2023-08-21T02:20:23;17.1;;;13.1;;
13057;SDS011;6595;49.578;11.012;2023-08-21T02:22:23;17.8;;;13.7;;
13057;SDS011;6595;49.578;11.012;2023-08-21T02:24:23;17.5;;;13.9;;
13057;SDS011;6595;49.578;11.012;2023-08-21T02:26:23;16.9;;;13.9;;
13057;SDS011;6595;49.578;11.012;2023-08-21T02:28:23;16.9;;;13.9;;
13057;SDS011;6595;49.578;11.012;2023-08-21T02:30:23;18.3;;;14.4;;
13057;SDS011;6595;49.578;11.012;2023-08-21T02:32:23;18.4;;;14.0;;
13057;SDS011;6595;49.578;11.012;2023-08-21T02:34:23;18.4;;;14.0;;
13057;SDS011;6595;49.578;11.012;2023-08-21T02:36:23;19.1;;;14.7;;
13057;SDS011;6595;49.578;11.012;2023-08-21T02:38:24;18.6;;;14.6;;
13057;SDS011;6595;49.578;11.012;2023-08-21T02:40:24;18.6;;;14.6;;
13057;SDS011;6595;49.578;11.012;2023-08-21T02:42:23;21.1;;;15.3;;
13057;SDS011;6595;49.578;11.012;2023-08-21T02:44:23;18.7;;;15.4;;
13057;SDS011;6595;49.578;11.012;2023-08-21T02:46:23;19.4;;;15.2;;
13057;SDS011;6595;49.578;11.012;2023-08-21T02:48:23;19.4;;;15.2;;
13057;SDS011;6595;49.578;11.012;2023-08-21T02:50:23;23.7;;;17.1;;
13057;SDS011;6595;49.578;11.012;2023-08-21T02:52:23;23.7;;;17.1;;
13057;SDS011;6595;49.578;11.012;2023-08-21T02:54:23;21.8;;;16.5;;
13057;SDS011;6595;49.578;11.012;2023-08-21T02:56:24;21.9;;;16.5;;
13057;SDS011;6595;49.578;11.012;2023-08-21T02:58:23;21.2;;;16.0;;
13057;SDS011;6595;49.578;11.012;2023-08-21T03:00:23;20.6;;;15.6;;
13057;SDS011;6595;49.578;11.012;2023-08-21T03:02:23;20.3;;;15.5;;
13057;SDS011;6595;49.578;11.012;2023-08-21T03:04:23;20.3;;;15.5;;
13057;SDS011;6595;49.578;11.012;2023-08-21T03:06:23;21.4;;;15.5;;
13057;SDS011;6595;49.578;11.012;2023-08-21T03:08:24;22.6;;;15.8;;
13057;SDS011;6595;49.578;11.012;2023-08-21T03:10:23;18.8;;;14.2;;
13057;SDS011;6595;49.578;11.012;2023-08-21T03:12:23;18.9;;;14.1;;
13057;SDS011;6595;49.578;11.012;2023-08-21T03:14:24;18.9;;;14.1;;
13057;SDS011;6595;49.578;11.012;2023-08-21T03:16:23;19.5;;;14.4;;
13057;SDS011;6595;49.578;11.012;2023-08-21T03:18:23;19.7;;;14.5;;
13057;SDS011;6595;49.578;11.012;2023-08-21T03:20:23;20.1;;;15.2;;
13057;SDS011;6595;49.578;11.012;2023-08-21T03:22:24;20.8;;;15.8;;
13057;SDS011;6595;49.578;11.012;2023-08-21T03:24:24;20.8;;;15.8;;
13057;SDS011;6595;49.578;11.012;2023-08-21T03:26:23;19.6;;;14.8;;
13057;SDS011;6595;49.578;11.012;2023-08-21T03:28:23;19.6;;;15.0;;
13057;SDS011;6595;49.578;11.012;2023-08-21T03:30:23;19.6;;;15.0;;
13057;SDS011;6595;49.578;11.012;2023-08-21T03:32:23;24.1;;;16.0;;
13057;SDS011;6595;49.578;11.012;2023-08-21T03:34:23;24.1;;;16.0;;
13057;SDS011;6595;49.578;11.012;2023-08-21T03:36:24;21.1;;;15.3;;
13057;SDS011;6595;49.578;11.012;2023-08-21T03:38:24;21.1;;;15.3;;
13057;SDS011;6595;49.578;11.012;2023-08-21T03:40:23;20.3;;;15.3;;
13057;SDS011;6595;49.578;11.012;2023-08-21T03:42:23;21.3;;;15.6;;
13057;SDS011;6595;49.578;11.012;2023-08-21T03:44:23;21.3;;;15.6;;
13057;SDS011;6595;49.578;11.012;2023-08-21T03:46:23;21.3;;;16.1;;
13057;SDS011;6595;49.578;11.012;2023-08-21T03:48:23;19.7;;;14.9;;
13057;SDS011;6595;49.578;11.012;2023-08-21T03:50:23;20.7;;;15.3;;
13057;SDS011;6595;49.578;11.012;2023-08-21T03:52:24;19.0;;;15.7;;
13057;SDS011;6595;49.578;11.012;2023-08-21T03:54:23;19.0;;;15.7;;
13057;SDS011;6595;49.578;11.012;2023-08-21T03:56:23;21.1;;;16.0;;
13057;SDS011;6595;49.578;11.012;2023-08-21T03:58:23;23.7;;;16.1;;
13057;SDS011;6595;49.578;11.012;2023-08-21T04:00:24;21.6;;;15.4;;
13057;SDS011;6595;49.578;11.012;2023-08-21T04:02:24;21.6;;;15.4;;
13057;SDS011;6595;49.578;11.012;2023-08-21T04:04:24;20.4;;;15.6;;
13057;SDS011;6595;49.578;11.012;2023-08-21T04:06:23;21.3;;;16.0;;
13057;SDS011;6595;49.578;11.012;2023-08-21T04:08:23;20.9;;;15.9;;
13057;SDS011;6595;49.578;11.012;2023-08-21T04:10:23;20.9;;;15.9;;
13057;SDS011;6595;49.578;11.012;2023-08-21T04:12:23;22.0;;;16.1;;
13057;SDS011;6595;49.578;11.012;2023-08-21T04:14:23;22.0;;;16.1;;
13057;SDS011;6595;49.578;11.012;2023-08-21T04:16:23;21.0;;;16.0;;
13057;SDS011;6595;49.578;11.012;2023-08-21T04:18:23;23.3;;;16.7;;
13057;SDS011;6595;49.578;11.012;2023-08-21T04:20:23;23.3;;;16.7;;
13057;SDS011;6595;49.578;11.012;2023-08-21T04:22:24;23.9;;;17.3;;
13057;SDS011;6595;49.578;11.012;2023-08-21T04:24:23;23.9;;;17.3;;
13057;SDS011;6595;49.578;11.012;2023-08-21T04:26:23;26.2;;;16.7;;
13057;SDS011;6595;49.578;11.012;2023-08-21T04:28:23;21.7;;;16.3;;
13057;SDS011;6595;49.578;11.012;2023-08-21T04:30:23;23.8;;;16.9;;
13057;SDS011;6595;49.578;11.012;2023-08-21T04:32:23;23.8;;;16.9;;
13057;SDS011;6595;49.578;11.012;2023-08-21T04:34:24;21.7;;;17.1;;
13057;SDS011;6595;49.578;11.012;2023-08-21T04:36:24;23.5;;;16.0;;
13057;SDS011;6595;49.578;11.012;2023-08-21T04:38:24;26.9;;;16.2;;
13057;SDS011;6595;49.578;11.012;2023-08-21T04:40:24;23.0;;;16.6;;
13057;SDS011;6595;49.578;11.012;2023-08-21T04:42:23;23.8;;;17.1;;
13057;SDS011;6595;49.578;11.012;2023-08-21T04:44:23;23.8;;;17.1;;
13057;SDS011;6595;49.578;11.012;2023-08-21T04:46:24;22.5;;;16.4;;
13057;SDS011;6595;49.578;11.012;2023-08-21T04:48:24;22.8;;;16.5;;
13057;SDS011;6595;49.578;11.012;2023-08-21T04:50:23;24.4;;;16.3;;
13057;SDS011;6595;49.578;11.012;2023-08-21T04:52:24;24.4;;;16.3;;
13057;SDS011;6595;49.578;11.012;2023-08-21T04:54:23;23.1;;;16.7;;
13057;SDS011;6595;49.578;11.012;2023-08-21T04:56:24;24.9;;;17.1;;
13057;SDS011;6595;49.578;11.012;2023-08-21T04:58:24;22.1;;;16.8;;
13057;SDS011;6595;49.578;11.012;2023-08-21T05:00:23;22.1;;;16.8;;
13057;SDS011;6595;49.578;11.012;2023-08-21T05:02:23;22.0;;;16.3;;
13057;SDS011;6595;49.578;11.012;2023-08-21T05:04:23;22.0;;;16.3;;
13057;SDS011;6595;49.578;11.012;2023-08-21T05:06:23;22.4;;;17.0;;
13057;SDS011;6595;49.578;11.012;2023-08-21T05:08:24;23.8;;;18.0;;
13057;SDS011;6595;49.578;11.012;2023-08-21T05:10:23;25.2;;;17.2;;
13057;SDS011;6595;49.578;11.012;2023-08-21T05:12:23;25.2;;;17.2;;
13057;SDS011;6595;49.578;11.012;2023-08-21T05:14:23;27.3;;;18.1;;
13057;SDS011;6595;49.578;11.012;2023-08-21T05:16:23;25.0;;;17.2;;
13057;SDS011;6595;49.578;11.012;2023-08-21T05:18:24;24.0;;;17.5;;
13057;SDS011;6595;49.578;11.012;2023-08-21T05:20:23;24.7;;;17.8;;
13057;SDS011;6595;49.578;11.012;2023-08-21T05:22:24;24.7;;;17.8;;
13057;SDS011;6595;49.578;11.012;2023-08-21T05:24:24;23.7;;;17.1;;
13057;SDS011;6595;49.578;11.012;2023-08-21T05:26:23;22.9;;;17.1;;
13057;SDS011;6595;49.578;11.012;2023-08-21T05:28:23;25.1;;;17.5;;
13057;SDS011;6595;49.578;11.012;2023-08-21T05:30:23;25.1;;;17.5;;
13057;SDS011;6595;49.578;11.012;2023-08-21T05:32:24;25.4;;;17.5;;
13057;SDS011;6595;49.578;11.012;2023-08-21T05:34:23;25.4;;;17.5;;
13057;SDS011;6595;49.578;11.012;2023-08-21T05:36:23;24.7;;;18.2;;
13057;SDS011;6595;49.578;11.012;2023-08-21T05:38:23;26.6;;;18.7;;
13057;SDS011;6595;49.578;11.012;2023-08-21T05:40:23;26.6;;;18.7;;
13057;SDS011;6595;49.578;11.012;2023-08-21T05:42:23;28.0;;;18.6;;
13057;SDS011;6595;49.578;11.012;2023-08-21T05:44:24;25.6;;;18.3;;
13057;SDS011;6595;49.578;11.012;2023-08-21T05:46:24;28.0;;;18.3;;
13057;SDS011;6595;49.578;11.012;2023-08-21T05:48:23;28.0;;;18.3;;
13057;SDS011;6595;49.578;11.012;2023-08-21T05:50:23;25.0;;;17.4;;
13057;SDS011;6595;49.578;11.012;2023-08-21T05:52:23;26.3;;;17.9;;
13057;SDS011;6595;49.578;11.012;2023-08-21T05:54:24;23.3;;;17.1;;
13057;SDS011;6595;49.578;11.012;2023-08-21T05:56:24;23.3;;;17.1;;
13057;SDS011;6595;49.578;11.012;2023-08-21T05:58:23;28.6;;;18.6;;
13057;SDS011;6595;49.578;11.012;2023-08-21T06:00:23;28.6;;;18.6;;
13057;SDS011;6595;49.578;11.012;2023-08-21T06:02:23;24.8;;;18.1;;
13057;SDS011;6595;49.578;11.012;2023-08-21T06:04:23;26.3;;;18.8;;
13057;SDS011;6595;49.578;11.012;2023-08-21T06:06:23;24.7;;;17.0;;
13057;SDS011;6595;49.578;11.012;2023-08-21T06:08:23;24.7;;;17.0;;
13057;SDS011;6595;49.578;11.012;2023-08-21T06:10:23;24.0;;;16.8;;
13057;SDS011;6595;49.578;11.012;2023-08-21T06:12:23;23.7;;;17.0;;
13057;SDS011;6595;49.578;11.012;2023-08-21T06:14:23;24.5;;;16.7;;
13057;SDS011;6595;49.578;11.012;2023-08-21T06:16:23;23.4;;;16.3;;
13057;SDS011;6595;49.578;11.012;2023-08-21T06:18:24;22.9;;;16.5;;
13057;SDS011;6595;49.578;11.012;2023-08-21T06:20:24;22.9;;;16.5;;
13057;SDS011;6595;49.578;11.012;2023-08-21T06:22:23;21.8;;;15.9;;
13057;SDS011;6595;49.578;11.012;2023-08-21T06:24:23;20.4;;;15.9;;
13057;SDS011;6595;49.578;11.012;2023-08-21T06:26:23;20.4;;;15.4;;
13057;SDS011;6595;49.578;11.012;2023-08-21T06:28:23;22.3;;;15.6;;
13057;SDS011;6595;49.578;11.012;2023-08-21T06:30:24;22.3;;;15.6;;
13057;SDS011;6595;49.578;11.012;2023-08-21T06:32:24;21.0;;;15.7;;
13057;SDS011;6595;49.578;11.012;2023-08-21T06:34:24;21.2;;;15.9;;
13057;SDS011;6595;49.578;11.012;2023-08-21T06:36:23;23.0;;;16.8;;
13057;SDS011;6595;49.578;11.012;2023-08-21T06:38:24;23.0;;;16.8;;
13057;SDS011;6595;49.578;11.012;2023-08-21T06:40:24;21.4;;;15.2;;
13057;SDS011;6595;49.578;11.012;2023-08-21T06:42:24;22.6;;;15.3;;
13057;SDS011;6595;49.578;11.012;2023-08-21T06:44:23;23.1;;;15.0;;
13057;SDS011;6595;49.578;11.012;2023-08-21T06:46:23;23.1;;;15.0;;
13057;SDS011;6595;49.578;11.012;2023-08-21T06:48:23;23.7;;;15.3;;
13057;SDS011;6595;49.578;11.012;2023-08-21T06:50:23;22.5;;;15.1;;
13057;SDS011;6595;49.578;11.012;2023-08-21T06:52:23;20.2;;;14.9;;
13057;SDS011;6595;49.578;11.012;2023-08-21T06:54:24;20.2;;;14.9;;
13057;SDS011;6595;49.578;11.012;2023-08-21T06:56:23;23.2;;;16.7;;
13057;SDS011;6595;49.578;11.012;2023-08-21T06:58:23;23.2;;;16.7;;
13057;SDS011;6595;49.578;11.012;2023-08-21T07:00:23;23.1;;;16.7;;
13057;SDS011;6595;49.578;11.012;2023-08-21T07:02:23;23.4;;;17.3;;
13057;SDS011;6595;49.578;11.012;2023-08-21T07:04:24;26.6;;;17.8;;
13057;SDS011;6595;49.578;11.012;2023-08-21T07:06:24;21.4;;;16.7;;
13057;SDS011;6595;49.578;11.012;2023-08-21T07:08:24;21.4;;;16.7;;
13057;SDS011;6595;49.578;11.012;2023-08-21T07:10:23;22.1;;;16.4;;
13057;SDS011;6595;49.578;11.012;2023-08-21T07:12:23;19.7;;;14.9;;
13057;SDS011;6595;49.578;11.012;2023-08-21T07:14:23;19.4;;;14.5;;
13057;SDS011;6595;49.578;11.012;2023-08-21T07:16:23;19.4;;;14.5;;
13057;SDS011;6595;49.578;11.012;2023-08-21T07:18:23;23.9;;;14.8;;
13057;SDS011;6595;49.578;11.012;2023-08-21T07:20:23;22.6;;;17.0;;
13057;SDS011;6595;49.578;11.012;2023-08-21T07:22:23;21.9;;;16.3;;
13057;SDS011;6595;49.578;11.012;2023-08-21T07:24:23;21.4;;;15.4;;
13057;SDS011;6595;49.578;11.012;2023-08-21T07:26:23;21.4;;;15.4;;
13057;SDS011;6595;49.578;11.012;2023-08-21T07:28:23;22.0;;;15.9;;
13057;SDS011;6595;49.578;11.012;2023-08-21T07:30:24;20.5;;;15.9;;
13057;SDS011;6595;49.578;11.012;2023-08-21T07:32:24;21.0;;;15.0;;
13057;SDS011;6595;49.578;11.012;2023-08-21T07:34:23;21.0;;;15.0;;
13057;SDS011;6595;49.578;11.012;2023-08-21T07:36:23;22.3;;;14.9;;
13057;SDS011;6595;49.578;11.012;2023-08-21T07:38:23;22.1;;;15.9;;
13057;SDS011;6595;49.578;11.012;2023-08-21T07:40:23;21.2;;;13.9;;
13057;SDS011;6595;49.578;11.012;2023-08-21T07:42:23;19.8;;;14.7;;
13057;SDS011;6595;49.578;11.012;2023-08-21T07:44:24;19.8;;;14.7;;
13057;SDS011;6595;49.578;11.012;2023-08-21T07:46:24;20.0;;;14.5;;
13057;SDS011;6595;49.578;11.012;2023-08-21T07:48:23;22.5;;;14.2;;
13057;SDS011;6595;49.578;11.012;2023-08-21T07:50:23;18.7;;;14.1;;
13057;SDS011;6595;49.578;11.012;2023-08-21T07:52:23;21.6;;;14.5;;
13057;SDS011;6595;49.578;11.012;2023-08-21T07:54:23;21.6;;;14.5;;
13057;SDS011;6595;49.578;11.012;2023-08-21T07:56:23;17.6;;;13.0;;
13057;SDS011;6595;49.578;11.012;2023-08-21T07:58:24;24.6;;;14.5;;
13057;SDS011;6595;49.578;11.012;2023-08-21T08:00:24;18.7;;;12.9;;
13057;SDS011;6595;49.578;11.012;2023-08-21T08:02:23;17.1;;;12.3;;
13057;SDS011;6595;49.578;11.012;2023-08-21T08:04:23;17.1;;;12.3;;
13057;SDS011;6595;49.578;11.012;2023-08-21T08:06:23;15.4;;;11.8;;
13057;SDS011;6595;49.578;11.012;2023-08-21T08:08:23;15.8;;;12.0;;
13057;SDS011;6595;49.578;11.012;2023-08-21T08:10:23;16.3;;;12.2;;
13057;SDS011;6595;49.578;11.012;2023-08-21T08:12:23;16.3;;;12.2;;
13057;SDS011;6595;49.578;11.012;2023-08-21T08:14:24;19.2;;;12.5;;
13057;SDS011;6595;49.578;11.012;2023-08-21T08:16:23;19.1;;;13.8;;
13057;SDS011;6595;49.578;11.012;2023-08-21T08:18:23;18.1;;;14.3;;
13057;SDS011;6595;49.578;11.012;2023-08-21T08:20:23;18.1;;;14.3;;
13057;SDS011;6595;49.578;11.012;2023-08-21T08:22:24;18.5;;;14.1;;
13057;SDS011;6595;49.578;11.012;2023-08-21T08:24:24;18.5;;;14.1;;
13057;SDS011;6595;49.578;11.012;2023-08-21T08:26:23;18.0;;;14.0;;
13057;SDS011;6595;49.578;11.012;2023-08-21T08:28:23;17.3;;;14.4;;
13057;SDS011;6595;49.578;11.012;2023-08-21T08:30:23;18.5;;;14.4;;
13057;SDS011;6595;49.578;11.012;2023-08-21T08:32:23;18.5;;;14.4;;
13057;SDS011;6595;49.578;11.012;2023-08-21T08:34:23;19.2;;;14.0;;
13057;SDS011;6595;49.578;11.012;2023-08-21T08:36:24;19.4;;;14.3;;
13057;SDS011;6595;49.578;11.012;2023-08-21T08:38:24;19.5;;;13.7;;
13057;SDS011;6595;49.578;11.012;2023-08-21T08:40:23;19.5;;;13.7;;
13057;SDS011;6595;49.578;11.012;2023-08-21T08:42:23;19.0;;;14.4;;
13057;SDS011;6595;49.578;11.012;2023-08-21T08:44:23;19.3;;;14.1;;
13057;SDS011;6595;49.578;11.012;2023-08-21T08:46:23;18.1;;;14.5;;
13057;SDS011;6595;49.578;11.012;2023-08-21T08:48:23;20.1;;;14.5;;
13057;SDS011;6595;49.578;11.012;2023-08-21T08:50:23;19.3;;;14.8;;
13057;SDS011;6595;49.578;11.012;2023-08-21T08:52:23;19.3;;;14.8;;
13057;SDS011;6595;49.578;11.012;2023-08-21T08:54:24;16.9;;;13.3;;
13057;SDS011;6595;49.578;11.012;2023-08-21T08:56:23;18.2;;;13.6;;
13057;SDS011;6595;49.578;11.012;2023-08-21T08:58:24;19.0;;;14.6;;
13057;SDS011;6595;49.578;11.012;2023-08-21T09:00:23;18.1;;;13.7;;
13057;SDS011;6595;49.578;11.012;2023-08-21T09:02:23;18.1;;;13.7;;
13057;SDS011;6595;49.578;11.012;2023-08-21T09:04:23;19.7;;;14.1;;
13057;SDS011;6595;49.578;11.012;2023-08-21T09:06:23;18.7;;;14.2;;
13057;SDS011;6595;49.578;11.012;2023-08-21T09:08:23;17.7;;;13.4;;
13057;SDS011;6595;49.578;11.012;2023-08-21T09:10:24;16.5;;;13.4;;
13057;SDS011;6595;49.578;11.012;2023-08-21T09:12:23;16.5;;;13.4;;
13057;SDS011;6595;49.578;11.012;2023-08-21T09:14:26;15.7;;;13.3;;
13057;SDS011;6595;49.578;11.012;2023-08-21T09:16:24;15.8;;;12.7;;
13057;SDS011;6595;49.578;11.012;2023-08-21T09:18:23;15.8;;;12.7;;
13057;SDS011;6595;49.578;11.012;2023-08-21T09:20:23;15.1;;;12.0;;
13057;SDS011;6595;49.578;11.012;2023-08-21T09:22:24;15.1;;;12.0;;
13057;SDS011;6595;49.578;11.012;2023-08-21T09:24:24;13.1;;;10.9;;
13057;SDS011;6595;49.578;11.012;2023-08-21T09:26:23;44.2;;;14.6;;
13057;SDS011;6595;49.578;11.012;2023-08-21T09:28:23;44.2;;;14.6;;
13057;SDS011;6595;49.578;11.012;2023-08-21T09:30:23;14.7;;;10.9;;
13057;SDS011;6595;49.578;11.012;2023-08-21T09:32:23;14.7;;;10.9;;
13057;SDS011;6595;49.578;11.012;2023-08-21T09:34:23;13.4;;;10.1;;
13057;SDS011;6595;49.578;11.012;2023-08-21T09:36:24;14.8;;;10.4;;
13057;SDS011;6595;49.578;11.012;2023-08-21T09:38:25;14.5;;;10.5;;
13057;SDS011;6595;49.578;11.012;2023-08-21T09:40:23;14.5;;;10.5;;
13057;SDS011;6595;49.578;11.012;2023-08-21T09:42:23;72.7;;;15.7;;
13057;SDS011;6595;49.578;11.012;2023-08-21T09:44:23;13.9;;;9.1;;
13057;SDS011;6595;49.578;11.012;2023-08-21T09:46:24;16.9;;;9.9;;
13057;SDS011;6595;49.578;11.012;2023-08-21T09:48:24;48.9;;;12.7;;
13057;SDS011;6595;49.578;11.012;2023-08-21T09:50:24;48.9;;;12.7;;
13057;SDS011;6595;49.578;11.012;2023-08-21T09:52:23;16.1;;;8.8;;
13057;SDS011;6595;49.578;11.012;2023-08-21T09:54:23;12.4;;;7.9;;
13057;SDS011;6595;49.578;11.012;2023-08-21T09:56:23;12.5;;;8.0;;
13057;SDS011;6595;49.578;11.012;2023-08-21T09:58:23;12.5;;;8.0;;
13057;SDS011;6595;49.578;11.012;2023-08-21T10:00:24;10.5;;;8.7;;
13057;SDS011;6595;49.578;11.012;2023-08-21T10:02:24;11.2;;;7.4;;
13057;SDS011;6595;49.578;11.012;2023-08-21T10:04:24;10.1;;;6.4;;
13057;SDS011;6595;49.578;11.012;2023-08-21T10:06:23;8.8;;;6.0;;
13057;SDS011;6595;49.578;11.012;2023-08-21T10:08:24;8.8;;;6.0;;
13057;SDS011;6595;49.578;11.012;2023-08-21T10:10:23;9.1;;;6.8;;
13057;SDS011;6595;49.578;11.012;2023-08-21T10:12:24;10.6;;;7.4;;
13057;SDS011;6595;49.578;11.012;2023-08-21T10:14:24;7.9;;;6.6;;
13057;SDS011;6595;49.578;11.012;2023-08-21T10:16:23;9.9;;;6.7;;
13057;SDS011;6595;49.578;11.012;2023-08-21T10:18:24;9.9;;;6.7;;
13057;SDS011;6595;49.578;11.012;2023-08-21T10:20:25;9.1;;;6.5;;
13057;SDS011;6595;49.578;11.012;2023-08-21T10:24:27;8.6;;;6.8;;
13057;SDS011;6595;49.578;11.012;2023-08-21T10:26:24;8.6;;;6.8;;
13057;SDS011;6595;49.578;11.012;2023-08-21T10:28:23;11.3;;;7.5;;
13057;SDS011;6595;49.578;11.012;2023-08-21T10:30:24;9.4;;;7.0;;
13057;SDS011;6595;49.578;11.012;2023-08-21T10:32:23;9.1;;;7.1;;
13057;SDS011;6595;49.578;11.012;2023-08-21T10:34:25;9.4;;;7.4;;
13057;SDS011;6595;49.578;11.012;2023-08-21T10:38:23;9.7;;;7.9;;
13057;SDS011;6595;49.578;11.012;2023-08-21T10:40:23;9.7;;;8.2;;
13057;SDS011;6595;49.578;11.012;2023-08-21T10:46:24;10.7;;;7.2;;
13057;SDS011;6595;49.578;11.012;2023-08-21T10:48:24;10.7;;;7.2;;
13057;SDS011;6595;49.578;11.012;2023-08-21T10:50:23;9.9;;;6.8;;
13057;SDS011;6595;49.578;11.012;2023-08-21T10:52:24;9.2;;;6.9;;
13057;SDS011;6595;49.578;11.012;2023-08-21T10:54:23;9.5;;;7.5;;
13057;SDS011;6595;49.578;11.012;2023-08-21T10:56:23;8.4;;;7.5;;
13057;SDS011;6595;49.578;11.012;2023-08-21T10:58:24;8.4;;;7.5;;
13057;SDS011;6595;49.578;11.012;2023-08-21T11:00:24;10.6;;;7.4;;
13057;SDS011;6595;49.578;11.012;2023-08-21T11:02:24;10.6;;;7.2;;
13057;SDS011;6595;49.578;11.012;2023-08-21T11:04:23;10.6;;;7.2;;
13057;SDS011;6595;49.578;11.012;2023-08-21T11:06:23;10.3;;;7.2;;
13057;SDS011;6595;49.578;11.012;2023-08-21T11:08:23;10.9;;;7.0;;
13057;SDS011;6595;49.578;11.012;2023-08-21T11:10:24;8.4;;;7.1;;
13057;SDS011;6595;49.578;11.012;2023-08-21T11:12:24;9.4;;;7.1;;
13057;SDS011;6595;49.578;11.012;2023-08-21T11:14:25;93.7;;;19.2;;
13057;SDS011;6595;49.578;11.012;2023-08-21T11:16:24;9.6;;;7.1;;
13057;SDS011;6595;49.578;11.012;2023-08-21T11:18:29;9.6;;;7.1;;
13057;SDS011;6595;49.578;11.012;2023-08-21T11:20:27;10.6;;;6.9;;
13057;SDS011;6595;49.578;11.012;2023-08-21T11:22:28;10.1;;;7.2;;
13057;SDS011;6595;49.578;11.012;2023-08-21T11:24:25;10.1;;;7.2;;
13057;SDS011;6595;49.578;11.012;2023-08-21T11:26:24;8.5;;;6.6;;
13057;SDS011;6595;49.578;11.012;2023-08-21T11:28:23;8.5;;;6.6;;
13057;SDS011;6595;49.578;11.012;2023-08-21T11:30:23;9.7;;;6.9;;
13057;SDS011;6595;49.578;11.012;2023-08-21T11:32:24;13.3;;;7.2;;
13057;SDS011;6595;49.578;11.012;2023-08-21T11:34:24;123.7;;;20.9;;
13057;SDS011;6595;49.578;11.012;2023-08-21T11:36:23;123.7;;;20.9;;
13057;SDS011;6595;49.578;11.012;2023-08-21T11:38:24;12.6;;;6.8;;
13057;SDS011;6595;49.578;11.012;2023-08-21T11:40:23;10.7;;;6.4;;
13057;SDS011;6595;49.578;11.012;2023-08-21T11:42:28;9.8;;;6.3;;
13057;SDS011;6595;49.578;11.012;2023-08-21T11:44:23;9.8;;;6.3;;
13057;SDS011;6595;49.578;11.012;2023-08-21T11:46:23;9.1;;;6.3;;
13057;SDS011;6595;49.578;11.012;2023-08-21T11:48:24;7.1;;;5.8;;
13057;SDS011;6595;49.578;11.012;2023-08-21T11:50:23;8.9;;;6.3;;
13057;SDS011;6595;49.578;11.012;2023-08-21T11:52:23;9.0;;;5.9;;
13057;SDS011;6595;49.578;11.012;2023-08-21T11:54:23;9.0;;;5.9;;
13057;SDS011;6595;49.578;11.012;2023-08-21T11:56:27;7.2;;;6.1;;
13057;SDS011;6595;49.578;11.012;2023-08-21T11:58:26;8.6;;;6.8;;
13057;SDS011;6595;49.578;11.012;2023-08-21T12:00:26;11.4;;;6.3;;
13057;SDS011;6595;49.578;11.012;2023-08-21T12:02:23;11.4;;;6.3;;
13057;SDS011;6595;49.578;11.012;2023-08-21T12:04:23;10.3;;;6.6;;
13057;SDS011;6595;49.578;11.012;2023-08-21T12:06:23;10.3;;;6.3;;
13057;SDS011;6595;49.578;11.012;2023-08-21T12:08:23;7.8;;;6.0;;
13057;SDS011;6595;49.578;11.012;2023-08-21T12:10:24;7.2;;;6.0;;
13057;SDS011;6595;49.578;11.012;2023-08-21T12:12:24;9.5;;;5.9;;